sensor_id;sensor_type;location;lat;lon;timestamp;temperature;humidity
49132;DHT22;35149;51.196;6.204;2022-11-20T00:01:08;8.00;63.20
49132;DHT22;35149;51.196;6.204;2022-11-20T00:03:35;8.00;63.20
49132;DHT22;35149;51.196;6.204;2022-11-20T00:06:02;8.00;63.20
49132;DHT22;35149;51.196;6.204;2022-11-20T00:08:34;8.00;63.20
49132;DHT22;35149;51.196;6.204;2022-11-20T00:11:05;8.00;63.30
49132;DHT22;35149;51.196;6.204;2022-11-20T00:13:43;8.00;63.20
49132;DHT22;35149;51.196;6.204;2022-11-20T00:16:14;8.00;63.20
49132;DHT22;35149;51.196;6.204;2022-11-20T00:18:44;8.00;63.10
49132;DHT22;35149;51.196;6.204;2022-11-20T00:21:18;8.00;63.20
49132;DHT22;35149;51.196;6.204;2022-11-20T00:23:48;8.00;63.10
49132;DHT22;35149;51.196;6.204;2022-11-20T00:26:15;8.10;63.10
49132;DHT22;35149;51.196;6.204;2022-11-20T00:28:43;8.00;63.10
49132;DHT22;35149;51.196;6.204;2022-11-20T00:31:11;8.00;63.20
49132;DHT22;35149;51.196;6.204;2022-11-20T00:33:38;8.00;63.20
49132;DHT22;35149;51.196;6.204;2022-11-20T00:36:12;8.00;63.20
49132;DHT22;35149;51.196;6.204;2022-11-20T00:38:46;8.00;63.30
49132;DHT22;35149;51.196;6.204;2022-11-20T00:41:14;8.00;63.30
49132;DHT22;35149;51.196;6.204;2022-11-20T00:43:46;7.90;63.30
49132;DHT22;35149;51.196;6.204;2022-11-20T00:46:15;8.00;63.20
49132;DHT22;35149;51.196;6.204;2022-11-20T00:48:43;7.90;63.20
49132;DHT22;35149;51.196;6.204;2022-11-20T00:51:10;8.00;63.30
49132;DHT22;35149;51.196;6.204;2022-11-20T00:53:37;8.00;63.30
49132;DHT22;35149;51.196;6.204;2022-11-20T00:56:05;8.00;63.30
49132;DHT22;35149;51.196;6.204;2022-11-20T00:58:37;8.00;63.30
49132;DHT22;35149;51.196;6.204;2022-11-20T01:01:11;8.00;63.30
49132;DHT22;35149;51.196;6.204;2022-11-20T01:03:39;8.00;63.30
49132;DHT22;35149;51.196;6.204;2022-11-20T01:06:07;8.00;63.30
49132;DHT22;35149;51.196;6.204;2022-11-20T01:08:34;8.00;63.30
49132;DHT22;35149;51.196;6.204;2022-11-20T01:11:02;8.00;63.30
49132;DHT22;35149;51.196;6.204;2022-11-20T01:13:34;8.00;63.30
49132;DHT22;35149;51.196;6.204;2022-11-20T01:16:13;8.00;63.30
49132;DHT22;35149;51.196;6.204;2022-11-20T01:18:41;8.00;63.30
49132;DHT22;35149;51.196;6.204;2022-11-20T01:21:10;8.00;63.30
49132;DHT22;35149;51.196;6.204;2022-11-20T01:23:38;8.00;63.30
49132;DHT22;35149;51.196;6.204;2022-11-20T01:26:06;8.00;63.30
49132;DHT22;35149;51.196;6.204;2022-11-20T01:28:35;8.00;63.30
49132;DHT22;35149;51.196;6.204;2022-11-20T01:31:10;8.00;63.30
49132;DHT22;35149;51.196;6.204;2022-11-20T01:33:39;8.00;63.30
49132;DHT22;35149;51.196;6.204;2022-11-20T01:36:06;8.00;63.30
49132;DHT22;35149;51.196;6.204;2022-11-20T01:38:33;8.00;63.40
49132;DHT22;35149;51.196;6.204;2022-11-20T01:41:00;8.00;63.40
49132;DHT22;35149;51.196;6.204;2022-11-20T01:43:26;8.00;63.40
49132;DHT22;35149;51.196;6.204;2022-11-20T01:45:57;8.00;63.40
49132;DHT22;35149;51.196;6.204;2022-11-20T01:48:25;7.90;63.40
49132;DHT22;35149;51.196;6.204;2022-11-20T01:50:58;7.90;63.40
49132;DHT22;35149;51.196;6.204;2022-11-20T01:53:30;7.90;63.40
49132;DHT22;35149;51.196;6.204;2022-11-20T01:56:07;7.80;63.40
49132;DHT22;35149;51.196;6.204;2022-11-20T01:58:39;7.80;63.40
49132;DHT22;35149;51.196;6.204;2022-11-20T02:01:08;7.80;63.50
49132;DHT22;35149;51.196;6.204;2022-11-20T02:03:38;7.80;63.50
49132;DHT22;35149;51.196;6.204;2022-11-20T02:06:10;7.70;63.40
49132;DHT22;35149;51.196;6.204;2022-11-20T02:08:41;7.70;63.50
49132;DHT22;35149;51.196;6.204;2022-11-20T02:11:08;7.70;63.50
49132;DHT22;35149;51.196;6.204;2022-11-20T02:13:35;7.70;63.50
49132;DHT22;35149;51.196;6.204;2022-11-20T02:16:13;7.60;63.50
49132;DHT22;35149;51.196;6.204;2022-11-20T02:18:40;7.60;63.50
49132;DHT22;35149;51.196;6.204;2022-11-20T02:21:20;7.50;63.40
49132;DHT22;35149;51.196;6.204;2022-11-20T02:24:00;7.50;63.40
49132;DHT22;35149;51.196;6.204;2022-11-20T02:26:28;7.50;63.30
49132;DHT22;35149;51.196;6.204;2022-11-20T02:28:56;7.40;63.20
49132;DHT22;35149;51.196;6.204;2022-11-20T02:31:25;7.30;63.10
49132;DHT22;35149;51.196;6.204;2022-11-20T02:33:58;7.30;63.10
49132;DHT22;35149;51.196;6.204;2022-11-20T02:36:26;7.20;63.00
49132;DHT22;35149;51.196;6.204;2022-11-20T02:38:54;7.10;62.90
49132;DHT22;35149;51.196;6.204;2022-11-20T02:41:32;7.00;62.90
49132;DHT22;35149;51.196;6.204;2022-11-20T02:44:01;6.90;62.80
49132;DHT22;35149;51.196;6.204;2022-11-20T02:46:30;6.80;62.90
49132;DHT22;35149;51.196;6.204;2022-11-20T02:48:57;6.70;63.50
49132;DHT22;35149;51.196;6.204;2022-11-20T02:51:24;6.70;63.00
49132;DHT22;35149;51.196;6.204;2022-11-20T02:53:50;6.60;63.10
49132;DHT22;35149;51.196;6.204;2022-11-20T02:56:17;6.50;63.30
49132;DHT22;35149;51.196;6.204;2022-11-20T02:58:44;6.50;63.40
49132;DHT22;35149;51.196;6.204;2022-11-20T03:01:10;6.40;63.40
49132;DHT22;35149;51.196;6.204;2022-11-20T03:03:37;6.30;63.60
49132;DHT22;35149;51.196;6.204;2022-11-20T03:06:08;6.30;63.70
49132;DHT22;35149;51.196;6.204;2022-11-20T03:08:35;6.30;63.90
49132;DHT22;35149;51.196;6.204;2022-11-20T03:11:02;6.30;64.10
49132;DHT22;35149;51.196;6.204;2022-11-20T03:13:30;6.30;64.30
49132;DHT22;35149;51.196;6.204;2022-11-20T03:15:57;6.20;64.40
49132;DHT22;35149;51.196;6.204;2022-11-20T03:18:23;6.20;64.60
49132;DHT22;35149;51.196;6.204;2022-11-20T03:20:56;6.30;64.80
49132;DHT22;35149;51.196;6.204;2022-11-20T03:23:22;6.30;64.80
49132;DHT22;35149;51.196;6.204;2022-11-20T03:25:52;6.30;64.90
49132;DHT22;35149;51.196;6.204;2022-11-20T03:28:21;6.40;65.00
49132;DHT22;35149;51.196;6.204;2022-11-20T03:30:47;6.40;65.00
49132;DHT22;35149;51.196;6.204;2022-11-20T03:33:14;6.40;65.00
49132;DHT22;35149;51.196;6.204;2022-11-20T03:35:40;6.50;65.00
49132;DHT22;35149;51.196;6.204;2022-11-20T03:38:08;6.50;64.90
49132;DHT22;35149;51.196;6.204;2022-11-20T03:40:34;6.50;64.80
49132;DHT22;35149;51.196;6.204;2022-11-20T03:43:02;6.50;64.70
49132;DHT22;35149;51.196;6.204;2022-11-20T03:45:28;6.60;64.70
49132;DHT22;35149;51.196;6.204;2022-11-20T03:47:55;6.50;64.70
49132;DHT22;35149;51.196;6.204;2022-11-20T03:50:21;6.50;64.70
49132;DHT22;35149;51.196;6.204;2022-11-20T03:52:48;6.60;64.70
49132;DHT22;35149;51.196;6.204;2022-11-20T03:55:18;6.60;64.70
49132;DHT22;35149;51.196;6.204;2022-11-20T03:57:45;6.60;64.70
49132;DHT22;35149;51.196;6.204;2022-11-20T04:00:11;6.60;64.80
49132;DHT22;35149;51.196;6.204;2022-11-20T04:02:38;6.70;64.70
49132;DHT22;35149;51.196;6.204;2022-11-20T04:05:05;6.60;64.50
49132;DHT22;35149;51.196;6.204;2022-11-20T04:07:33;6.60;64.50
49132;DHT22;35149;51.196;6.204;2022-11-20T04:10:00;6.60;64.60
49132;DHT22;35149;51.196;6.204;2022-11-20T04:12:31;6.70;64.50
49132;DHT22;35149;51.196;6.204;2022-11-20T04:14:57;6.60;64.40
49132;DHT22;35149;51.196;6.204;2022-11-20T04:17:24;6.60;64.40
49132;DHT22;35149;51.196;6.204;2022-11-20T04:19:51;6.60;64.40
49132;DHT22;35149;51.196;6.204;2022-11-20T04:22:17;6.60;64.40
49132;DHT22;35149;51.196;6.204;2022-11-20T04:24:44;6.60;64.30
49132;DHT22;35149;51.196;6.204;2022-11-20T04:27:11;6.60;64.30
49132;DHT22;35149;51.196;6.204;2022-11-20T04:29:37;6.60;64.30
49132;DHT22;35149;51.196;6.204;2022-11-20T04:32:04;6.60;64.30
49132;DHT22;35149;51.196;6.204;2022-11-20T04:34:33;6.60;64.30
49132;DHT22;35149;51.196;6.204;2022-11-20T04:37:00;6.60;64.30
49132;DHT22;35149;51.196;6.204;2022-11-20T04:39:27;6.60;64.30
49132;DHT22;35149;51.196;6.204;2022-11-20T04:41:53;6.60;64.40
49132;DHT22;35149;51.196;6.204;2022-11-20T04:44:43;6.60;64.40
49132;DHT22;35149;51.196;6.204;2022-11-20T04:47:09;6.60;64.30
49132;DHT22;35149;51.196;6.204;2022-11-20T04:49:36;6.60;64.20
49132;DHT22;35149;51.196;6.204;2022-11-20T04:52:02;6.60;64.20
49132;DHT22;35149;51.196;6.204;2022-11-20T04:54:29;6.60;64.10
49132;DHT22;35149;51.196;6.204;2022-11-20T04:56:58;6.50;64.10
49132;DHT22;35149;51.196;6.204;2022-11-20T04:59:29;6.50;64.10
49132;DHT22;35149;51.196;6.204;2022-11-20T05:01:56;6.50;64.10
49132;DHT22;35149;51.196;6.204;2022-11-20T05:04:22;6.50;64.20
49132;DHT22;35149;51.196;6.204;2022-11-20T05:06:49;6.50;64.30
49132;DHT22;35149;51.196;6.204;2022-11-20T05:09:16;6.50;65.00
49132;DHT22;35149;51.196;6.204;2022-11-20T05:11:42;6.50;64.50
49132;DHT22;35149;51.196;6.204;2022-11-20T05:14:16;6.40;64.50
49132;DHT22;35149;51.196;6.204;2022-11-20T05:16:43;6.50;64.60
49132;DHT22;35149;51.196;6.204;2022-11-20T05:19:09;6.50;64.60
49132;DHT22;35149;51.196;6.204;2022-11-20T05:21:36;6.50;64.60
49132;DHT22;35149;51.196;6.204;2022-11-20T05:24:03;6.50;64.50
49132;DHT22;35149;51.196;6.204;2022-11-20T05:26:30;6.50;64.50
49132;DHT22;35149;51.196;6.204;2022-11-20T05:28:57;6.50;64.40
49132;DHT22;35149;51.196;6.204;2022-11-20T05:31:26;6.50;64.40
49132;DHT22;35149;51.196;6.204;2022-11-20T05:33:54;6.50;64.40
49132;DHT22;35149;51.196;6.204;2022-11-20T05:36:21;6.50;64.40
49132;DHT22;35149;51.196;6.204;2022-11-20T05:38:48;6.50;64.40
49132;DHT22;35149;51.196;6.204;2022-11-20T05:41:18;6.50;64.40
49132;DHT22;35149;51.196;6.204;2022-11-20T05:43:45;6.50;64.40
49132;DHT22;35149;51.196;6.204;2022-11-20T05:46:12;6.40;64.30
49132;DHT22;35149;51.196;6.204;2022-11-20T05:48:40;6.40;64.30
49132;DHT22;35149;51.196;6.204;2022-11-20T05:51:07;6.40;64.30
49132;DHT22;35149;51.196;6.204;2022-11-20T05:53:35;6.40;64.30
49132;DHT22;35149;51.196;6.204;2022-11-20T05:56:06;6.30;64.30
49132;DHT22;35149;51.196;6.204;2022-11-20T05:58:33;6.30;64.30
49132;DHT22;35149;51.196;6.204;2022-11-20T06:01:07;6.30;64.30
49132;DHT22;35149;51.196;6.204;2022-11-20T06:03:34;6.30;64.30
49132;DHT22;35149;51.196;6.204;2022-11-20T06:06:02;6.30;64.30
49132;DHT22;35149;51.196;6.204;2022-11-20T06:08:30;6.20;64.30
49132;DHT22;35149;51.196;6.204;2022-11-20T06:11:02;6.20;64.30
49132;DHT22;35149;51.196;6.204;2022-11-20T06:13:31;6.10;64.20
49132;DHT22;35149;51.196;6.204;2022-11-20T06:15:58;6.10;64.30
49132;DHT22;35149;51.196;6.204;2022-11-20T06:18:25;6.10;64.40
49132;DHT22;35149;51.196;6.204;2022-11-20T06:20:58;6.10;64.50
49132;DHT22;35149;51.196;6.204;2022-11-20T06:23:25;6.00;64.60
49132;DHT22;35149;51.196;6.204;2022-11-20T06:25:53;6.10;64.80
49132;DHT22;35149;51.196;6.204;2022-11-20T06:28:22;6.10;65.00
49132;DHT22;35149;51.196;6.204;2022-11-20T06:30:49;6.10;65.10
49132;DHT22;35149;51.196;6.204;2022-11-20T06:33:16;6.10;65.20
49132;DHT22;35149;51.196;6.204;2022-11-20T06:35:42;6.10;65.20
49132;DHT22;35149;51.196;6.204;2022-11-20T06:38:09;6.20;65.30
49132;DHT22;35149;51.196;6.204;2022-11-20T06:40:35;6.20;65.30
49132;DHT22;35149;51.196;6.204;2022-11-20T06:43:02;6.20;65.40
49132;DHT22;35149;51.196;6.204;2022-11-20T06:45:29;6.30;65.40
49132;DHT22;35149;51.196;6.204;2022-11-20T06:47:56;6.30;65.40
49132;DHT22;35149;51.196;6.204;2022-11-20T06:50:23;6.30;65.40
49132;DHT22;35149;51.196;6.204;2022-11-20T06:52:50;6.40;65.50
49132;DHT22;35149;51.196;6.204;2022-11-20T06:55:16;6.40;65.50
49132;DHT22;35149;51.196;6.204;2022-11-20T06:57:45;6.40;66.10
49132;DHT22;35149;51.196;6.204;2022-11-20T07:00:16;6.50;65.60
49132;DHT22;35149;51.196;6.204;2022-11-20T07:02:42;6.50;65.50
49132;DHT22;35149;51.196;6.204;2022-11-20T07:05:09;6.50;65.50
49132;DHT22;35149;51.196;6.204;2022-11-20T07:07:35;6.60;65.60
49132;DHT22;35149;51.196;6.204;2022-11-20T07:10:02;6.60;65.50
49132;DHT22;35149;51.196;6.204;2022-11-20T07:12:30;6.60;65.50
49132;DHT22;35149;51.196;6.204;2022-11-20T07:14:57;6.70;65.50
49132;DHT22;35149;51.196;6.204;2022-11-20T07:17:23;6.70;65.50
49132;DHT22;35149;51.196;6.204;2022-11-20T07:19:50;6.80;65.50
49132;DHT22;35149;51.196;6.204;2022-11-20T07:22:18;6.80;65.50
49132;DHT22;35149;51.196;6.204;2022-11-20T07:24:48;6.80;65.50
49132;DHT22;35149;51.196;6.204;2022-11-20T07:27:14;6.90;65.50
49132;DHT22;35149;51.196;6.204;2022-11-20T07:29:41;6.90;65.50
49132;DHT22;35149;51.196;6.204;2022-11-20T07:32:09;6.90;65.50
49132;DHT22;35149;51.196;6.204;2022-11-20T07:34:35;6.90;65.50
49132;DHT22;35149;51.196;6.204;2022-11-20T07:37:02;7.00;65.50
49132;DHT22;35149;51.196;6.204;2022-11-20T07:39:38;7.00;66.10
49132;DHT22;35149;51.196;6.204;2022-11-20T07:42:05;7.00;65.50
49132;DHT22;35149;51.196;6.204;2022-11-20T07:44:36;7.00;65.50
49132;DHT22;35149;51.196;6.204;2022-11-20T07:47:06;7.10;65.60
49132;DHT22;35149;51.196;6.204;2022-11-20T07:49:32;7.10;65.50
49132;DHT22;35149;51.196;6.204;2022-11-20T07:52:01;7.10;65.50
49132;DHT22;35149;51.196;6.204;2022-11-20T07:54:34;7.10;65.50
49132;DHT22;35149;51.196;6.204;2022-11-20T07:57:00;7.20;65.50
49132;DHT22;35149;51.196;6.204;2022-11-20T07:59:27;7.20;65.50
49132;DHT22;35149;51.196;6.204;2022-11-20T08:01:53;7.30;65.50
49132;DHT22;35149;51.196;6.204;2022-11-20T08:04:22;7.30;65.50
49132;DHT22;35149;51.196;6.204;2022-11-20T08:06:51;7.30;65.50
49132;DHT22;35149;51.196;6.204;2022-11-20T08:09:20;7.40;65.60
49132;DHT22;35149;51.196;6.204;2022-11-20T08:11:47;7.40;65.60
49132;DHT22;35149;51.196;6.204;2022-11-20T08:14:32;7.40;65.60
49132;DHT22;35149;51.196;6.204;2022-11-20T08:16:59;7.40;65.60
49132;DHT22;35149;51.196;6.204;2022-11-20T08:19:25;7.50;65.60
49132;DHT22;35149;51.196;6.204;2022-11-20T08:21:52;7.50;65.60
49132;DHT22;35149;51.196;6.204;2022-11-20T08:24:21;7.60;65.60
49132;DHT22;35149;51.196;6.204;2022-11-20T08:26:48;7.60;65.60
49132;DHT22;35149;51.196;6.204;2022-11-20T08:29:17;7.70;65.70
49132;DHT22;35149;51.196;6.204;2022-11-20T08:31:44;7.70;65.60
49132;DHT22;35149;51.196;6.204;2022-11-20T08:34:11;7.70;65.60
49132;DHT22;35149;51.196;6.204;2022-11-20T08:36:44;7.80;65.60
49132;DHT22;35149;51.196;6.204;2022-11-20T08:39:11;7.80;65.50
49132;DHT22;35149;51.196;6.204;2022-11-20T08:41:38;7.80;66.20
49132;DHT22;35149;51.196;6.204;2022-11-20T08:44:05;7.80;65.60
49132;DHT22;35149;51.196;6.204;2022-11-20T08:49:00;7.90;65.90
49132;DHT22;35149;51.196;6.204;2022-11-20T08:51:27;8.00;66.10
49132;DHT22;35149;51.196;6.204;2022-11-20T08:53:54;8.10;66.10
49132;DHT22;35149;51.196;6.204;2022-11-20T08:56:20;8.10;66.10
49132;DHT22;35149;51.196;6.204;2022-11-20T08:58:50;8.20;66.10
49132;DHT22;35149;51.196;6.204;2022-11-20T09:01:37;8.30;66.00
49132;DHT22;35149;51.196;6.204;2022-11-20T09:04:05;8.40;66.00
49132;DHT22;35149;51.196;6.204;2022-11-20T09:06:34;8.40;65.90
49132;DHT22;35149;51.196;6.204;2022-11-20T09:09:03;8.40;65.80
49132;DHT22;35149;51.196;6.204;2022-11-20T09:11:32;8.50;65.70
49132;DHT22;35149;51.196;6.204;2022-11-20T09:13:59;8.50;65.70
49132;DHT22;35149;51.196;6.204;2022-11-20T09:16:26;8.50;65.70
49132;DHT22;35149;51.196;6.204;2022-11-20T09:18:52;8.60;65.70
49132;DHT22;35149;51.196;6.204;2022-11-20T09:21:39;8.60;65.60
49132;DHT22;35149;51.196;6.204;2022-11-20T09:24:06;8.70;65.60
49132;DHT22;35149;51.196;6.204;2022-11-20T09:26:32;8.70;65.40
49132;DHT22;35149;51.196;6.204;2022-11-20T09:29:01;8.70;65.30
49132;DHT22;35149;51.196;6.204;2022-11-20T09:31:28;8.70;65.20
49132;DHT22;35149;51.196;6.204;2022-11-20T09:33:54;8.70;65.20
49132;DHT22;35149;51.196;6.204;2022-11-20T09:36:21;8.70;65.10
49132;DHT22;35149;51.196;6.204;2022-11-20T09:38:47;8.60;65.10
49132;DHT22;35149;51.196;6.204;2022-11-20T09:49:46;8.60;65.10
49132;DHT22;35149;51.196;6.204;2022-11-20T09:54:45;8.60;65.20
49132;DHT22;35149;51.196;6.204;2022-11-20T09:57:17;8.60;65.40
49132;DHT22;35149;51.196;6.204;2022-11-20T10:02:16;8.70;65.60
49132;DHT22;35149;51.196;6.204;2022-11-20T10:04:52;8.70;65.70
49132;DHT22;35149;51.196;6.204;2022-11-20T10:07:22;8.80;65.90
49132;DHT22;35149;51.196;6.204;2022-11-20T10:10:01;8.80;65.90
49132;DHT22;35149;51.196;6.204;2022-11-20T10:12:54;8.90;66.00
49132;DHT22;35149;51.196;6.204;2022-11-20T10:22:54;9.10;65.80
49132;DHT22;35149;51.196;6.204;2022-11-20T10:25:39;9.20;65.70
49132;DHT22;35149;51.196;6.204;2022-11-20T10:30:59;9.30;65.60
49132;DHT22;35149;51.196;6.204;2022-11-20T10:33:26;9.40;65.70
49132;DHT22;35149;51.196;6.204;2022-11-20T10:36:17;9.40;65.70
49132;DHT22;35149;51.196;6.204;2022-11-20T10:38:56;9.50;65.60
49132;DHT22;35149;51.196;6.204;2022-11-20T10:41:30;9.50;65.60
49132;DHT22;35149;51.196;6.204;2022-11-20T10:44:09;9.60;65.60
49132;DHT22;35149;51.196;6.204;2022-11-20T10:46:42;9.60;65.60
49132;DHT22;35149;51.196;6.204;2022-11-20T10:49:13;9.70;65.70
49132;DHT22;35149;51.196;6.204;2022-11-20T10:54:53;9.80;65.50
49132;DHT22;35149;51.196;6.204;2022-11-20T10:57:00;9.80;65.40
49132;DHT22;35149;51.196;6.204;2022-11-20T11:01:56;9.90;65.20
49132;DHT22;35149;51.196;6.204;2022-11-20T11:04:38;9.90;65.10
49132;DHT22;35149;51.196;6.204;2022-11-20T11:07:10;10.00;65.10
49132;DHT22;35149;51.196;6.204;2022-11-20T11:09:47;10.00;65.00
49132;DHT22;35149;51.196;6.204;2022-11-20T11:12:15;10.00;64.90
49132;DHT22;35149;51.196;6.204;2022-11-20T11:14:45;10.00;64.90
49132;DHT22;35149;51.196;6.204;2022-11-20T11:17:28;10.00;64.80
49132;DHT22;35149;51.196;6.204;2022-11-20T11:19:59;10.00;64.80
49132;DHT22;35149;51.196;6.204;2022-11-20T11:22:27;10.00;64.90
49132;DHT22;35149;51.196;6.204;2022-11-20T11:24:54;10.10;64.90
49132;DHT22;35149;51.196;6.204;2022-11-20T11:27:20;10.10;65.00
49132;DHT22;35149;51.196;6.204;2022-11-20T11:29:47;10.10;65.00
49132;DHT22;35149;51.196;6.204;2022-11-20T11:32:15;10.10;65.00
49132;DHT22;35149;51.196;6.204;2022-11-20T11:34:41;10.10;65.00
49132;DHT22;35149;51.196;6.204;2022-11-20T11:37:18;10.10;64.90
49132;DHT22;35149;51.196;6.204;2022-11-20T11:39:48;10.10;64.70
49132;DHT22;35149;51.196;6.204;2022-11-20T11:42:31;10.20;64.80
49132;DHT22;35149;51.196;6.204;2022-11-20T11:44:59;10.20;64.80
49132;DHT22;35149;51.196;6.204;2022-11-20T11:47:33;10.20;64.80
49132;DHT22;35149;51.196;6.204;2022-11-20T11:52:44;10.20;64.70
49132;DHT22;35149;51.196;6.204;2022-11-20T11:58:04;10.20;64.70
49132;DHT22;35149;51.196;6.204;2022-11-20T12:00:33;10.20;64.80
49132;DHT22;35149;51.196;6.204;2022-11-20T12:03:06;10.20;64.90
49132;DHT22;35149;51.196;6.204;2022-11-20T12:05:42;10.20;64.90
49132;DHT22;35149;51.196;6.204;2022-11-20T12:08:20;10.20;64.90
49132;DHT22;35149;51.196;6.204;2022-11-20T12:10:59;10.20;64.90
49132;DHT22;35149;51.196;6.204;2022-11-20T12:16:00;10.20;65.50
49132;DHT22;35149;51.196;6.204;2022-11-20T12:18:30;10.20;64.90
49132;DHT22;35149;51.196;6.204;2022-11-20T12:21:03;10.20;65.00
49132;DHT22;35149;51.196;6.204;2022-11-20T12:29:09;10.20;65.20
49132;DHT22;35149;51.196;6.204;2022-11-20T12:31:49;10.20;65.30
49132;DHT22;35149;51.196;6.204;2022-11-20T12:37:13;10.30;65.30
49132;DHT22;35149;51.196;6.204;2022-11-20T12:39:45;10.30;65.40
49132;DHT22;35149;51.196;6.204;2022-11-20T12:42:17;10.30;65.40
49132;DHT22;35149;51.196;6.204;2022-11-20T12:45:22;10.40;65.50
49132;DHT22;35149;51.196;6.204;2022-11-20T12:52:56;10.40;65.40
49132;DHT22;35149;51.196;6.204;2022-11-20T12:55:27;10.40;65.40
49132;DHT22;35149;51.196;6.204;2022-11-20T12:58:00;10.40;65.40
49132;DHT22;35149;51.196;6.204;2022-11-20T13:00:31;10.40;65.40
49132;DHT22;35149;51.196;6.204;2022-11-20T13:05:34;10.50;65.40
49132;DHT22;35149;51.196;6.204;2022-11-20T13:08:03;10.50;65.50
49132;DHT22;35149;51.196;6.204;2022-11-20T13:10:35;10.50;65.50
49132;DHT22;35149;51.196;6.204;2022-11-20T13:13:07;10.60;65.60
49132;DHT22;35149;51.196;6.204;2022-11-20T13:18:25;10.60;65.60
49132;DHT22;35149;51.196;6.204;2022-11-20T13:20:52;10.60;65.70
49132;DHT22;35149;51.196;6.204;2022-11-20T13:23:25;10.60;65.70
49132;DHT22;35149;51.196;6.204;2022-11-20T13:26:04;10.60;65.70
49132;DHT22;35149;51.196;6.204;2022-11-20T13:28:31;10.70;65.80
49132;DHT22;35149;51.196;6.204;2022-11-20T13:31:00;10.70;65.80
49132;DHT22;35149;51.196;6.204;2022-11-20T13:33:34;10.70;65.90
49132;DHT22;35149;51.196;6.204;2022-11-20T13:36:04;10.80;65.80
49132;DHT22;35149;51.196;6.204;2022-11-20T13:38:47;10.80;65.70
49132;DHT22;35149;51.196;6.204;2022-11-20T13:41:34;10.90;65.70
49132;DHT22;35149;51.196;6.204;2022-11-20T13:44:46;10.90;65.60
49132;DHT22;35149;51.196;6.204;2022-11-20T13:46:51;10.90;65.50
49132;DHT22;35149;51.196;6.204;2022-11-20T13:52:04;10.90;65.40
49132;DHT22;35149;51.196;6.204;2022-11-20T13:57:25;10.90;65.40
49132;DHT22;35149;51.196;6.204;2022-11-20T14:00:09;10.90;65.50
49132;DHT22;35149;51.196;6.204;2022-11-20T14:02:37;10.90;65.50
49132;DHT22;35149;51.196;6.204;2022-11-20T14:05:03;10.90;65.40
49132;DHT22;35149;51.196;6.204;2022-11-20T14:07:35;10.80;65.30
49132;DHT22;35149;51.196;6.204;2022-11-20T14:10:03;10.80;65.30
49132;DHT22;35149;51.196;6.204;2022-11-20T14:12:32;10.80;65.30
49132;DHT22;35149;51.196;6.204;2022-11-20T14:14:59;10.80;65.20
49132;DHT22;35149;51.196;6.204;2022-11-20T14:17:32;10.80;65.30
49132;DHT22;35149;51.196;6.204;2022-11-20T14:20:02;10.80;65.30
49132;DHT22;35149;51.196;6.204;2022-11-20T14:22:33;10.80;65.30
49132;DHT22;35149;51.196;6.204;2022-11-20T14:27:43;10.70;65.20
49132;DHT22;35149;51.196;6.204;2022-11-20T14:30:14;10.70;65.20
49132;DHT22;35149;51.196;6.204;2022-11-20T14:32:43;10.60;65.20
49132;DHT22;35149;51.196;6.204;2022-11-20T14:35:13;10.60;65.30
49132;DHT22;35149;51.196;6.204;2022-11-20T14:37:41;10.60;65.30
49132;DHT22;35149;51.196;6.204;2022-11-20T14:40:22;10.60;65.40
49132;DHT22;35149;51.196;6.204;2022-11-20T14:42:49;10.50;65.40
49132;DHT22;35149;51.196;6.204;2022-11-20T14:45:15;10.50;65.50
49132;DHT22;35149;51.196;6.204;2022-11-20T14:47:45;10.50;65.50
49132;DHT22;35149;51.196;6.204;2022-11-20T14:50:25;10.50;65.50
49132;DHT22;35149;51.196;6.204;2022-11-20T14:52:59;10.50;65.60
49132;DHT22;35149;51.196;6.204;2022-11-20T14:55:27;10.40;65.50
49132;DHT22;35149;51.196;6.204;2022-11-20T14:57:56;10.40;65.60
49132;DHT22;35149;51.196;6.204;2022-11-20T15:00:23;10.40;65.70
49132;DHT22;35149;51.196;6.204;2022-11-20T15:02:50;10.30;65.70
49132;DHT22;35149;51.196;6.204;2022-11-20T15:05:18;10.30;65.80
49132;DHT22;35149;51.196;6.204;2022-11-20T15:07:46;10.30;65.90
49132;DHT22;35149;51.196;6.204;2022-11-20T15:12:47;10.20;66.00
49132;DHT22;35149;51.196;6.204;2022-11-20T15:15:17;10.20;66.10
49132;DHT22;35149;51.196;6.204;2022-11-20T15:17:46;10.20;66.20
49132;DHT22;35149;51.196;6.204;2022-11-20T15:20:14;10.20;66.30
49132;DHT22;35149;51.196;6.204;2022-11-20T15:22:41;10.10;66.40
49132;DHT22;35149;51.196;6.204;2022-11-20T15:25:14;10.10;66.40
49132;DHT22;35149;51.196;6.204;2022-11-20T15:27:44;10.10;66.50
49132;DHT22;35149;51.196;6.204;2022-11-20T15:30:15;10.10;66.60
49132;DHT22;35149;51.196;6.204;2022-11-20T15:32:43;10.10;66.70
49132;DHT22;35149;51.196;6.204;2022-11-20T15:35:13;10.10;66.80
49132;DHT22;35149;51.196;6.204;2022-11-20T15:37:40;10.10;66.90
49132;DHT22;35149;51.196;6.204;2022-11-20T15:40:07;10.10;67.00
49132;DHT22;35149;51.196;6.204;2022-11-20T15:42:36;10.10;67.00
49132;DHT22;35149;51.196;6.204;2022-11-20T15:45:03;10.10;67.00
49132;DHT22;35149;51.196;6.204;2022-11-20T15:47:33;10.10;67.10
49132;DHT22;35149;51.196;6.204;2022-11-20T15:50:00;10.10;67.10
49132;DHT22;35149;51.196;6.204;2022-11-20T15:52:29;10.10;67.20
49132;DHT22;35149;51.196;6.204;2022-11-20T15:55:10;10.10;67.30
49132;DHT22;35149;51.196;6.204;2022-11-20T15:57:37;10.10;67.30
49132;DHT22;35149;51.196;6.204;2022-11-20T16:00:06;10.20;67.40
49132;DHT22;35149;51.196;6.204;2022-11-20T16:02:37;10.10;67.40
49132;DHT22;35149;51.196;6.204;2022-11-20T16:05:04;10.10;67.40
49132;DHT22;35149;51.196;6.204;2022-11-20T16:07:33;10.20;67.60
49132;DHT22;35149;51.196;6.204;2022-11-20T16:10:02;10.20;67.60
49132;DHT22;35149;51.196;6.204;2022-11-20T16:12:34;10.20;67.60
49132;DHT22;35149;51.196;6.204;2022-11-20T16:15:22;10.20;67.60
49132;DHT22;35149;51.196;6.204;2022-11-20T16:18:08;10.20;67.60
49132;DHT22;35149;51.196;6.204;2022-11-20T16:20:35;10.20;67.70
49132;DHT22;35149;51.196;6.204;2022-11-20T16:23:01;10.20;67.70
49132;DHT22;35149;51.196;6.204;2022-11-20T16:25:29;10.20;67.70
49132;DHT22;35149;51.196;6.204;2022-11-20T16:27:56;10.20;67.70
49132;DHT22;35149;51.196;6.204;2022-11-20T16:30:25;10.30;67.80
49132;DHT22;35149;51.196;6.204;2022-11-20T16:32:51;10.30;67.80
49132;DHT22;35149;51.196;6.204;2022-11-20T16:35:18;10.30;67.80
49132;DHT22;35149;51.196;6.204;2022-11-20T16:37:44;10.30;67.80
49132;DHT22;35149;51.196;6.204;2022-11-20T16:40:11;10.30;67.80
49132;DHT22;35149;51.196;6.204;2022-11-20T16:42:38;10.30;67.70
49132;DHT22;35149;51.196;6.204;2022-11-20T16:45:04;10.30;67.70
49132;DHT22;35149;51.196;6.204;2022-11-20T16:47:37;10.30;67.80
49132;DHT22;35149;51.196;6.204;2022-11-20T16:50:05;10.30;67.80
49132;DHT22;35149;51.196;6.204;2022-11-20T16:52:32;10.30;67.80
49132;DHT22;35149;51.196;6.204;2022-11-20T16:55:01;10.40;67.90
49132;DHT22;35149;51.196;6.204;2022-11-20T16:57:28;10.40;67.80
49132;DHT22;35149;51.196;6.204;2022-11-20T16:59:55;10.40;67.80
49132;DHT22;35149;51.196;6.204;2022-11-20T17:02:27;10.40;67.90
49132;DHT22;35149;51.196;6.204;2022-11-20T17:04:56;10.40;68.40